Time;durP1;ratioP1;P1;durP2;ratioP2;P2;SDS_P1;SDS_P2;PMS_P1;PMS_P2;Temp;Humidity;BMP_temperature;BMP_pressure;BME280_temperature;BME280_humidity;BME280_pressure;Samples;Min_cycle;Max_cycle;Signal;HPM_P1;HPM_P2
2022/01/17 00:01:53;;;;;;;23.98;3.00;;;9.00;99.90;;;;;;4772865;30;20051;-92
2022/01/17 00:04:20;;;;;;;19.77;3.10;;;9.50;99.90;;;;;;4773551;30;20048;-91
2022/01/17 00:06:47;;;;;;;26.70;3.92;;;9.20;99.90;;;;;;4773390;30;20413;-92
2022/01/17 00:09:13;;;;;;;24.08;3.33;;;7.70;99.90;;;;;;4772877;30;20058;-91
2022/01/17 00:11:43;;;;;;;22.25;4.30;;;9.30;99.90;;;;;;4773596;30;20048;-92
2022/01/17 00:14:13;;;;;;;25.73;3.55;;;8.70;99.90;;;;;;4772471;30;20150;-92
2022/01/17 00:16:44;;;;;;;29.80;3.97;;;6.90;99.90;;;;;;4772696;30;20051;-92
2022/01/17 00:19:36;;;;;;;28.63;4.05;;;7.30;99.90;;;;;;4772493;30;20047;-92
2022/01/17 00:22:02;;;;;;;30.48;3.67;;;9.30;99.90;;;;;;4772801;30;20142;-92
2022/01/17 00:24:28;;;;;;;25.02;3.13;;;6.90;99.90;;;;;;4772786;30;20138;-92
2022/01/17 00:26:54;;;;;;;22.27;3.55;;;7.00;99.90;;;;;;4772526;30;20578;-91
2022/01/17 00:29:19;;;;;;;18.23;3.05;;;6.80;99.90;;;;;;4772851;30;20074;-92
2022/01/17 00:31:45;;;;;;;32.63;3.47;;;7.00;99.90;;;;;;4772323;30;20142;-91
2022/01/17 00:34:11;;;;;;;25.65;3.90;;;7.60;99.90;;;;;;4771860;30;20052;-92
2022/01/17 00:36:36;;;;;;;28.35;3.72;;;8.40;99.90;;;;;;4772057;30;20055;-91
2022/01/17 00:39:02;;;;;;;35.70;3.85;;;8.20;99.90;;;;;;4772101;30;20138;-91
2022/01/17 00:41:28;;;;;;;23.38;4.05;;;8.90;99.90;;;;;;4772182;30;20144;-91
2022/01/17 00:43:55;;;;;;;26.00;3.92;;;8.40;99.90;;;;;;4772101;30;20091;-92
2022/01/17 00:46:20;;;;;;;27.92;3.75;;;8.90;99.90;;;;;;4772248;30;20044;-92
2022/01/17 00:48:46;;;;;;;22.23;3.53;;;7.50;99.90;;;;;;4772603;30;20167;-92
2022/01/17 00:51:12;;;;;;;28.30;4.32;;;9.70;99.90;;;;;;4772055;30;20052;-91
2022/01/17 00:53:37;;;;;;;26.90;3.75;;;9.60;99.90;;;;;;4771828;30;20417;-92
2022/01/17 00:56:04;;;;;;;25.88;3.88;;;7.80;99.90;;;;;;4783547;30;20059;-92
2022/01/17 00:58:30;;;;;;;36.40;3.47;;;7.40;99.90;;;;;;4788671;29;20056;-92
2022/01/17 01:00:56;;;;;;;18.85;3.28;;;8.50;99.90;;;;;;4790185;30;20051;-93
2022/01/17 01:03:22;;;;;;;32.03;3.83;;;9.40;99.90;;;;;;4789904;30;20090;-92
2022/01/17 01:05:47;;;;;;;23.17;3.45;;;7.00;99.90;;;;;;4789689;30;20060;-92
2022/01/17 01:08:13;;;;;;;19.52;2.92;;;8.00;99.90;;;;;;4789710;30;20043;-92
2022/01/17 01:10:39;;;;;;;38.15;4.72;;;6.90;99.90;;;;;;4789945;30;20374;-92
2022/01/17 01:13:05;;;;;;;27.70;4.47;;;7.30;99.90;;;;;;4789240;30;20417;-91
2022/01/17 01:18:14;;;;;;;15.63;2.88;;;9.40;99.90;;;;;;4790154;30;20059;-91
2022/01/17 01:28:37;;;;;;;29.85;4.80;;;8.70;99.90;;;;;;4789650;30;20063;-92
2022/01/17 01:31:09;;;;;;;37.55;4.90;;;9.10;99.90;;;;;;4789553;30;20127;-91
2022/01/17 01:33:39;;;;;;;25.35;3.90;;;9.00;99.90;;;;;;4789161;30;20058;-91
2022/01/17 01:36:11;;;;;;;20.80;3.88;;;9.00;99.90;;;;;;4788830;30;20051;-91
2022/01/17 01:38:39;;;;;;;31.83;3.70;;;7.00;99.90;;;;;;4788731;30;20055;-91
2022/01/17 01:41:05;;;;;;;25.05;3.67;;;9.10;99.90;;;;;;4788960;30;20508;-91
2022/01/17 01:43:31;;;;;;;31.63;5.07;;;9.10;99.90;;;;;;4789626;30;20132;-92
2022/01/17 01:46:00;;;;;;;18.45;2.88;;;7.50;99.90;;;;;;4789330;30;20055;-92
2022/01/17 01:48:28;;;;;;;32.85;4.88;;;9.10;99.90;;;;;;4789181;30;20055;-92
2022/01/17 01:50:54;;;;;;;22.77;3.40;;;9.00;99.90;;;;;;4788953;30;20047;-91
2022/01/17 01:53:22;;;;;;;25.85;3.53;;;7.30;99.90;;;;;;4788824;30;20054;-92
2022/01/17 01:55:51;;;;;;;20.75;2.97;;;5.90;99.90;;;;;;4786599;30;20063;-92
2022/01/17 01:58:17;;;;;;;23.98;4.07;;;8.50;99.90;;;;;;4788528;30;20105;-92
2022/01/17 02:00:43;;;;;;;29.92;4.43;;;8.00;99.90;;;;;;4773803;30;20051;-92
2022/01/17 02:03:08;;;;;;;23.65;3.58;;;7.20;99.90;;;;;;4788748;30;20043;-91
2022/01/17 02:05:34;;;;;;;25.00;3.60;;;6.90;99.90;;;;;;4789252;30;20051;-92
2022/01/17 02:08:00;;;;;;;25.33;3.88;;;7.30;99.90;;;;;;4788513;30;20062;-91
2022/01/17 02:10:26;;;;;;;25.85;4.25;;;7.00;99.90;;;;;;4788813;30;20117;-92
2022/01/17 02:12:52;;;;;;;22.10;4.10;;;7.00;99.90;;;;;;4788449;30;20107;-92
2022/01/17 02:15:18;;;;;;;21.58;4.18;;;6.90;99.90;;;;;;4789316;30;20082;-91
2022/01/17 02:17:52;;;;;;;29.60;3.75;;;7.90;99.90;;;;;;4788566;30;20043;-91
2022/01/17 02:20:22;;;;;;;27.63;3.97;;;9.30;99.90;;;;;;4788338;30;20133;-91
2022/01/17 02:22:49;;;;;;;28.85;3.60;;;7.10;99.90;;;;;;4788586;30;20398;-92
2022/01/17 02:25:15;;;;;;;28.92;4.10;;;9.40;99.90;;;;;;4789129;30;20383;-92
2022/01/17 02:27:41;;;;;;;20.48;3.15;;;7.10;99.90;;;;;;4788217;30;20062;-91
2022/01/17 02:30:07;;;;;;;24.38;4.05;;;7.20;99.90;;;;;;4788001;30;20051;-92
2022/01/17 02:32:33;;;;;;;21.98;2.88;;;7.00;99.90;;;;;;4788705;30;20047;-92
2022/01/17 02:35:17;;;;;;;18.58;3.10;;;7.00;99.90;;;;;;4789044;30;20047;-92
2022/01/17 02:37:44;;;;;;;21.45;3.45;;;7.10;99.90;;;;;;4788185;30;20501;-92
2022/01/17 02:40:10;;;;;;;22.27;2.90;;;7.50;99.90;;;;;;4788648;30;20054;-92
2022/01/17 02:42:37;;;;;;;20.80;3.30;;;7.00;99.90;;;;;;4788265;30;20054;-92
2022/01/17 02:45:19;;;;;;;24.10;3.42;;;9.40;99.90;;;;;;4788256;30;20139;-91
2022/01/17 02:47:45;;;;;;;22.77;3.63;;;7.00;99.90;;;;;;4787682;30;20055;-91
2022/01/17 02:50:11;;;;;;;31.90;5.53;;;7.80;99.90;;;;;;4787856;30;20120;-92
2022/01/17 02:52:37;;;;;;;19.45;4.32;;;7.10;99.90;;;;;;4788155;30;20055;-92
2022/01/17 02:55:28;;;;;;;20.52;3.28;;;7.30;99.90;;;;;;4785298;30;20051;-90
2022/01/17 02:57:55;;;;;;;19.77;3.22;;;7.10;99.90;;;;;;4788001;30;20440;-92
2022/01/17 03:00:21;;;;;;;14.23;3.25;;;8.90;99.90;;;;;;4787783;30;20094;-91
2022/01/17 03:02:49;;;;;;;15.40;2.80;;;8.80;99.90;;;;;;4787751;30;20055;-91
2022/01/17 03:05:16;;;;;;;17.23;3.42;;;9.50;99.90;;;;;;4788687;30;20093;-91
2022/01/17 03:07:42;;;;;;;14.95;2.75;;;7.20;99.90;;;;;;4787796;30;20047;-92
2022/01/17 03:10:16;;;;;;;19.88;3.60;;;7.90;99.90;;;;;;4787862;30;20055;-91
2022/01/17 03:12:42;;;;;;;18.90;2.85;;;7.20;99.90;;;;;;4788015;30;20512;-91
2022/01/17 03:15:08;;;;;;;24.35;3.30;;;7.20;99.90;;;;;;4788218;30;20051;-90
2022/01/17 03:17:34;;;;;;;15.00;2.78;;;7.20;99.90;;;;;;4787320;30;20050;-90
2022/01/17 03:20:00;;;;;;;30.58;3.35;;;;;;;;;;4787254;29;20421;-91
2022/01/17 03:22:26;;;;;;;15.07;3.13;;;7.20;99.90;;;;;;4775040;30;20058;-90
2022/01/17 03:24:51;;;;;;;23.08;3.25;;;9.40;99.90;;;;;;4790783;30;20051;-90
2022/01/17 03:27:18;;;;;;;19.30;3.63;;;9.40;99.90;;;;;;4790751;30;20091;-91
2022/01/17 03:29:44;;;;;;;27.92;3.17;;;7.00;99.90;;;;;;4791124;30;20051;-92
2022/01/17 03:32:10;;;;;;;25.17;3.28;;;7.30;99.90;;;;;;4791507;30;20059;-91
2022/01/17 03:34:38;;;;;;;28.30;3.80;;;7.50;99.90;;;;;;4791396;30;20093;-92
2022/01/17 03:37:03;;;;;;;16.08;2.25;;;8.80;99.90;;;;;;4791247;30;20043;-92
2022/01/17 03:39:29;;;;;;;20.48;3.80;;;7.00;99.90;;;;;;4791227;30;20557;-91
2022/01/17 03:41:55;;;;;;;28.23;4.30;;;9.60;99.90;;;;;;4791452;30;20078;-91
2022/01/17 03:44:21;;;;;;;22.70;3.25;;;8.80;99.90;;;;;;4791035;30;20053;-91
2022/01/17 03:46:46;;;;;;;20.83;3.33;;;9.50;99.90;;;;;;4790642;30;20142;-92
2022/01/17 03:49:12;;;;;;;30.85;3.88;;;7.10;99.90;;;;;;4790726;30;20554;-90
2022/01/17 03:51:38;;;;;;;21.35;3.20;;;9.40;99.90;;;;;;4790354;30;20059;-90
2022/01/17 03:54:04;;;;;;;17.52;3.55;;;9.20;99.90;;;;;;4790131;30;20054;-90
2022/01/17 03:56:29;;;;;;;24.88;3.92;;;8.80;99.90;;;;;;4789869;30;20059;-90
2022/01/17 03:58:55;;;;;;;20.83;4.25;;;;;;;;;;4790189;30;20062;-91
2022/01/17 04:01:21;;;;;;;23.27;3.78;;;7.30;99.90;;;;;;4775614;30;20047;-92
2022/01/17 04:03:47;;;;;;;27.17;3.85;;;8.70;99.90;;;;;;4791060;30;20055;-91
2022/01/17 04:06:17;;;;;;;38.67;4.90;;;;;;;;;;4790547;30;20058;-91
2022/01/17 04:08:43;;;;;;;28.83;4.72;;;7.30;99.90;;;;;;4775671;30;20059;-91
2022/01/17 04:11:09;;;;;;;14.75;3.33;;;7.50;99.90;;;;;;4790786;30;20051;-92
2022/01/17 04:13:35;;;;;;;16.85;3.80;;;7.80;99.90;;;;;;4790837;30;20058;-91
2022/01/17 04:16:02;;;;;;;35.00;4.25;;;7.30;99.90;;;;;;4790493;30;20052;-92
2022/01/17 04:18:27;;;;;;;27.65;5.00;;;9.40;99.90;;;;;;4790328;30;20051;-92
2022/01/17 04:20:53;;;;;;;23.92;4.97;;;9.30;99.90;;;;;;4790467;30;20104;-91
2022/01/17 04:23:19;;;;;;;18.55;5.22;;;7.70;99.90;;;;;;4790192;30;20058;-90
2022/01/17 04:25:45;;;;;;;30.02;5.53;;;7.50;99.90;;;;;;4790135;30;20054;-91
2022/01/17 04:28:13;;;;;;;23.88;5.40;;;7.60;99.90;;;;;;4790234;30;20052;-90
2022/01/17 04:30:41;;;;;;;22.15;5.15;;;7.50;99.90;;;;;;4790064;30;20046;-90
2022/01/17 04:33:07;;;;;;;31.73;5.43;;;10.00;99.90;;;;;;4790105;29;20059;-91
2022/01/17 04:35:33;;;;;;;31.52;5.72;;;8.80;99.90;;;;;;4790079;30;20047;-92
2022/01/17 04:38:04;;;;;;;19.02;4.82;;;9.00;99.90;;;;;;4790278;30;20473;-91
2022/01/17 04:40:39;;;;;;;30.08;5.20;;;7.60;99.90;;;;;;4789977;30;20047;-92
2022/01/17 04:43:14;;;;;;;20.30;4.70;;;7.50;99.90;;;;;;4790074;30;20048;-92
2022/01/17 04:45:40;;;;;;;23.63;5.75;;;7.60;99.90;;;;;;4790032;30;20115;-91
2022/01/17 04:48:06;;;;;;;28.90;6.32;;;8.30;99.90;;;;;;4790237;30;20059;-91
2022/01/17 04:50:32;;;;;;;23.73;6.10;;;7.50;99.90;;;;;;4789733;30;20051;-92
2022/01/17 04:53:00;;;;;;;34.53;5.50;;;10.10;99.90;;;;;;4789663;30;20051;-91
2022/01/17 04:58:43;;;;;;;29.58;4.30;;;8.60;99.90;;;;;;4773106;30;20449;-91
2022/01/17 05:01:09;;;;;;;25.70;4.45;;;;;;;;;;4771147;30;20146;-90
2022/01/17 05:03:35;;;;;;;29.38;4.70;;;7.60;99.90;;;;;;4755949;30;20058;-90
2022/01/17 05:06:01;;;;;;;33.20;7.00;;;9.80;99.90;;;;;;4771366;30;20052;-90
2022/01/17 05:08:27;;;;;;;21.95;5.30;;;7.40;99.90;;;;;;4771466;30;20052;-91
2022/01/17 05:10:54;;;;;;;26.30;5.25;;;7.30;99.90;;;;;;4771559;30;20081;-90
2022/01/17 05:13:26;;;;;;;22.27;4.78;;;7.60;99.90;;;;;;4771816;30;20088;-91
2022/01/17 05:16:05;;;;;;;33.22;5.45;;;9.10;99.90;;;;;;4771110;30;20039;-91
2022/01/17 05:20:57;;;;;;;24.52;5.43;;;7.90;99.90;;;;;;4771449;30;20052;-91
2022/01/17 05:23:22;;;;;;;30.77;4.93;;;9.90;99.90;;;;;;4770860;30;20144;-90
2022/01/17 05:25:48;;;;;;;22.95;4.68;;;9.80;99.90;;;;;;4771281;30;20143;-90
2022/01/17 05:28:14;;;;;;;21.67;3.88;;;7.60;99.90;;;;;;4770846;30;20062;-90
2022/01/17 05:30:40;;;;;;;33.78;7.97;;;9.90;99.90;;;;;;4772127;30;20044;-91
2022/01/17 05:33:08;;;;;;;28.40;5.75;;;7.70;99.90;;;;;;4771469;30;20054;-92
2022/01/17 05:35:34;;;;;;;26.92;5.28;;;6.50;99.90;;;;;;4771219;30;20086;-90
2022/01/17 05:38:00;;;;;;;32.38;5.22;;;10.00;99.90;;;;;;4771088;30;20506;-91
2022/01/17 05:40:26;;;;;;;29.50;5.07;;;9.20;99.90;;;;;;4770908;30;20056;-92
2022/01/17 05:42:52;;;;;;;32.40;5.85;;;9.60;99.90;;;;;;4771793;30;20062;-91
2022/01/17 05:45:18;;;;;;;25.00;5.80;;;9.70;99.90;;;;;;4771100;30;20474;-91
2022/01/17 05:47:45;;;;;;;23.90;4.53;;;7.60;99.90;;;;;;4770835;30;20081;-91
2022/01/17 05:50:11;;;;;;;26.45;5.43;;;8.00;99.90;;;;;;4770687;30;20047;-92
2022/01/17 05:52:38;;;;;;;36.90;6.47;;;7.80;99.90;;;;;;4770538;30;20134;-90
2022/01/17 05:55:06;;;;;;;30.95;5.88;;;9.20;99.90;;;;;;4771047;30;20124;-91
2022/01/17 05:57:35;;;;;;;29.00;5.47;;;7.80;99.90;;;;;;4777699;30;20066;-91
2022/01/17 06:00:01;;;;;;;24.73;4.78;;;8.00;99.90;;;;;;4772857;30;20425;-91
2022/01/17 06:02:27;;;;;;;29.58;5.68;;;8.20;99.90;;;;;;4787853;30;20446;-90
2022/01/17 06:04:53;;;;;;;26.77;5.65;;;7.90;99.90;;;;;;4787958;30;20577;-91
2022/01/17 06:07:18;;;;;;;35.35;6.53;;;8.10;99.90;;;;;;4787646;30;20083;-90
2022/01/17 06:09:45;;;;;;;27.73;4.90;;;9.60;99.90;;;;;;4787754;30;20094;-91
2022/01/17 06:12:11;;;;;;;36.90;6.10;;;8.20;99.90;;;;;;4786580;30;20043;-90
2022/01/17 06:14:38;;;;;;;34.92;6.53;;;9.50;99.90;;;;;;4787314;30;20058;-91
2022/01/17 06:17:07;;;;;;;46.53;7.10;;;9.90;99.90;;;;;;4787142;30;20043;-91
2022/01/17 06:19:33;;;;;;;30.85;5.25;;;8.30;99.90;;;;;;4787352;30;20051;-91
2022/01/17 06:21:59;;;;;;;30.90;5.75;;;8.10;99.90;;;;;;4787562;30;20043;-91
2022/01/17 06:24:25;;;;;;;31.98;5.15;;;9.30;99.90;;;;;;4787726;30;20058;-91
2022/01/17 06:26:51;;;;;;;27.05;5.50;;;9.60;99.90;;;;;;4788346;30;20112;-92
2022/01/17 06:29:17;;;;;;;39.67;6.40;;;7.90;99.90;;;;;;4787759;30;20134;-92
2022/01/17 06:31:44;;;;;;;38.22;5.97;;;10.10;99.90;;;;;;4787753;30;20122;-92
2022/01/17 06:34:11;;;;;;;35.10;5.97;;;7.80;99.90;;;;;;4787729;30;20100;-91
2022/01/17 06:36:37;;;;;;;39.22;5.78;;;10.20;99.90;;;;;;4787836;30;20094;-92
2022/01/17 06:39:04;;;;;;;32.72;5.10;;;8.60;99.90;;;;;;4787507;30;20784;-92
2022/01/17 06:41:30;;;;;;;32.97;5.60;;;9.70;99.90;;;;;;4787025;30;20090;-91
2022/01/17 06:43:56;;;;;;;31.55;5.32;;;8.10;99.90;;;;;;4787366;30;20596;-91
2022/01/17 06:49:13;;;;;;;36.45;6.18;;;8.50;99.90;;;;;;4787390;30;20055;-90
2022/01/17 06:51:39;;;;;;;28.45;4.57;;;7.90;99.90;;;;;;4772049;30;20102;-90
2022/01/17 06:54:04;;;;;;;43.85;5.93;;;8.20;99.90;;;;;;4787221;30;20508;-91
2022/01/17 06:56:30;;;;;;;26.33;4.57;;;8.10;99.90;;;;;;4749863;30;1071498;-91
2022/01/17 06:58:56;;;;;;;39.97;5.53;;;9.50;99.90;;;;;;4787974;30;20116;-90
2022/01/17 07:01:22;;;;;;;48.88;6.47;;;8.30;99.90;;;;;;4787416;30;20489;-91
2022/01/17 07:03:50;;;;;;;35.38;6.55;;;9.60;99.90;;;;;;4788901;30;20120;-92
2022/01/17 07:06:16;;;;;;;30.45;5.15;;;7.90;99.90;;;;;;4787935;30;20051;-93
2022/01/17 07:08:44;;;;;;;28.05;5.18;;;8.60;99.90;;;;;;4788531;30;20116;-94
2022/01/17 07:11:11;;;;;;;44.33;5.90;;;7.40;99.90;;;;;;4787762;30;20401;-92
2022/01/17 07:13:39;;;;;;;37.58;6.10;;;10.00;99.90;;;;;;4786976;30;20091;-93
2022/01/17 07:16:05;;;;;;;50.13;6.47;;;10.60;99.90;;;;;;4787540;30;20047;-89
2022/01/17 07:18:33;;;;;;;44.25;5.40;;;10.10;99.90;;;;;;4786666;30;20055;-93
2022/01/17 07:20:59;;;;;;;36.90;5.40;;;6.80;99.90;;;;;;4786842;30;20051;-90
2022/01/17 07:23:25;;;;;;;17.98;3.50;;;8.40;99.90;;;;;;4786449;30;20051;-91
2022/01/17 07:25:51;;;;;;;24.65;5.38;;;8.30;99.90;;;;;;4786314;30;20043;-92
2022/01/17 07:28:16;;;;;;;53.78;8.20;;;8.40;99.90;;;;;;4786153;30;20417;-91
2022/01/17 07:30:43;;;;;;;45.72;5.05;;;8.90;99.90;;;;;;4786859;30;20466;-91
2022/01/17 07:33:09;;;;;;;37.83;5.88;;;8.60;99.90;;;;;;4786249;30;20497;-92
2022/01/17 07:35:48;;;;;;;40.20;6.22;;;8.40;99.90;;;;;;4787284;30;20052;-92
2022/01/17 07:42:59;;;;;;;;;;;;;;;;;;;;;
2022/01/17 07:45:26;;;;;;;37.03;6.20;;;7.80;99.90;;;;;;4717629;30;20060;-91
2022/01/17 07:50:29;;;;;;;30.48;4.70;;;8.90;99.90;;;;;;4786012;30;20059;-90
2022/01/17 07:52:58;;;;;;;20.60;3.65;;;8.30;99.90;;;;;;4785779;30;20515;-89
2022/01/17 07:55:24;;;;;;;42.85;4.80;;;8.70;99.90;;;;;;4786607;30;20051;-89
2022/01/17 07:57:50;;;;;;;33.33;4.95;;;8.80;99.90;;;;;;4786830;30;20069;-91
2022/01/17 08:00:22;;;;;;;26.85;4.28;;;9.50;99.90;;;;;;4786381;30;20501;-90
2022/01/17 08:03:08;;;;;;;35.10;5.60;;;8.60;99.90;;;;;;4774293;30;20055;-93
2022/01/17 08:05:35;;;;;;;34.58;4.53;;;8.50;99.90;;;;;;4795404;29;20487;-92
2022/01/17 08:08:04;;;;;;;33.65;5.38;;;8.80;99.90;;;;;;4773840;30;20079;-94
2022/01/17 08:10:33;;;;;;;39.28;4.75;;;8.60;99.90;;;;;;4789584;30;20055;-93
2022/01/17 08:13:11;;;;;;;42.13;6.25;;;8.60;99.90;;;;;;4789820;30;20051;-93
2022/01/17 08:15:38;;;;;;;39.05;5.80;;;10.10;99.90;;;;;;4788895;30;20103;-91
2022/01/17 08:18:04;;;;;;;37.17;5.78;;;8.40;99.90;;;;;;4788809;30;20466;-92
2022/01/17 08:20:36;;;;;;;35.25;5.28;;;8.40;99.90;;;;;;4789013;30;20062;-94
2022/01/17 08:23:09;;;;;;;41.45;6.35;;;8.70;99.90;;;;;;4789176;30;20058;-92
2022/01/17 08:25:42;;;;;;;39.03;5.93;;;8.70;99.90;;;;;;4788840;30;20054;-91
2022/01/17 08:28:08;;;;;;;34.42;5.45;;;8.60;99.90;;;;;;4788670;30;20417;-91
2022/01/17 08:30:39;;;;;;;41.78;5.93;;;9.20;99.90;;;;;;4790044;30;20058;-91
2022/01/17 08:33:05;;;;;;;37.03;6.07;;;8.80;99.90;;;;;;4788739;30;20051;-92
2022/01/17 08:35:37;;;;;;;37.33;5.57;;;10.90;99.90;;;;;;4789396;30;20048;-93
2022/01/17 08:38:03;;;;;;;34.58;5.47;;;7.60;99.90;;;;;;4787040;30;20052;-90
2022/01/17 08:40:29;;;;;;;40.45;6.63;;;10.80;99.90;;;;;;4771071;30;20059;-90
2022/01/17 08:42:55;;;;;;;38.25;5.07;;;8.70;99.90;;;;;;4771505;30;20051;-93
2022/01/17 08:45:23;;;;;;;39.10;5.93;;;9.40;99.90;;;;;;4756216;30;20051;-91
2022/01/17 08:47:51;;;;;;;48.30;6.60;;;8.40;99.90;;;;;;4756170;30;20055;-87
2022/01/17 08:50:19;;;;;;;37.95;6.10;;;10.40;99.90;;;;;;4773871;30;20051;-92
2022/01/17 08:52:46;;;;;;;46.78;6.68;;;9.10;99.90;;;;;;4788526;30;20142;-85
2022/01/17 08:55:12;;;;;;;40.00;5.55;;;9.00;99.90;;;;;;4788462;30;20081;-91
2022/01/17 08:57:37;;;;;;;39.80;4.97;;;8.80;99.90;;;;;;4780519;30;20062;-85
2022/01/17 09:00:07;;;;;;;47.75;6.13;;;8.70;99.90;;;;;;4777690;30;20425;-86
2022/01/17 09:02:34;;;;;;;46.85;6.05;;;8.80;99.90;;;;;;4755605;30;20692;-87
2022/01/17 09:04:59;;;;;;;42.03;6.18;;;10.40;99.90;;;;;;4770388;30;20472;-86
2022/01/17 09:07:25;;;;;;;39.60;5.72;;;;;;;;;;4755953;30;20064;-90
2022/01/17 09:09:51;;;;;;;52.55;6.07;;;8.90;99.90;;;;;;4755554;30;20528;-89
2022/01/17 09:12:17;;;;;;;41.50;6.43;;;9.00;99.90;;;;;;4755600;30;20082;-88
2022/01/17 09:14:43;;;;;;;37.88;5.55;;;10.90;99.90;;;;;;4755357;30;20044;-86
2022/01/17 09:17:10;;;;;;;47.53;5.35;;;7.90;99.90;;;;;;4755130;30;20055;-87
2022/01/17 09:19:38;;;;;;;28.30;4.53;;;8.80;99.90;;;;;;4754633;30;20054;-89
2022/01/17 09:22:06;;;;;;;40.88;5.63;;;8.90;99.90;;;;;;4755227;30;20055;-89
2022/01/17 09:24:33;;;;;;;42.75;5.82;;;8.90;99.90;;;;;;4755398;30;20071;-87
2022/01/17 09:26:59;;;;;;;32.60;5.05;;;10.50;99.90;;;;;;4755395;30;20142;-85
2022/01/17 09:30:16;;;;;;;41.30;6.00;;;9.30;99.90;;;;;;4770369;30;20127;-91
2022/01/17 09:32:42;;;;;;;37.58;6.25;;;9.30;99.90;;;;;;4778160;30;20059;-87
2022/01/17 09:35:11;;;;;;;35.50;5.22;;;9.70;99.90;;;;;;4787298;30;20047;-88
2022/01/17 09:37:37;;;;;;;33.95;5.95;;;9.20;99.90;;;;;;4786944;30;20047;-86
2022/01/17 09:40:05;;;;;;;54.28;6.45;;;9.00;99.90;;;;;;4787964;30;20423;-87
2022/01/17 09:42:35;;;;;;;31.48;5.20;;;9.10;99.90;;;;;;4787381;30;20058;-86
2022/01/17 09:45:03;;;;;;;38.20;5.55;;;10.90;99.90;;;;;;4787399;30;20055;-86
2022/01/17 09:47:31;;;;;;;35.70;5.00;;;9.30;99.90;;;;;;4787583;30;20138;-86
2022/01/17 09:49:57;;;;;;;32.47;5.53;;;11.50;99.90;;;;;;4787233;30;20051;-90
2022/01/17 09:55:09;;;;;;;51.28;7.15;;;9.30;99.90;;;;;;4787565;30;20087;-88
2022/01/17 09:57:39;;;;;;;33.63;5.72;;;9.70;99.90;;;;;;4784578;30;20057;-89
2022/01/17 10:00:07;;;;;;;42.55;5.03;;;9.50;99.90;;;;;;4787187;30;20087;-86
2022/01/17 10:02:33;;;;;;;41.63;5.60;;;9.40;99.90;;;;;;4775931;30;20071;-86
2022/01/17 10:05:02;;;;;;;46.50;6.40;;;9.30;99.90;;;;;;4768808;30;20063;-86
2022/01/17 10:07:50;;;;;;;39.40;6.70;;;9.40;99.90;;;;;;4772436;30;20054;-86
2022/01/17 10:10:35;;;;;;;51.17;6.40;;;9.40;99.90;;;;;;4784804;29;20059;-86
2022/01/17 10:13:08;;;;;;;59.05;6.90;;;9.40;99.90;;;;;;4764661;30;20054;-84
2022/01/17 10:15:45;;;;;;;42.92;5.40;;;9.60;99.90;;;;;;4772051;30;20579;-87
2022/01/17 10:18:27;;;;;;;35.60;5.18;;;9.60;99.90;;;;;;4786908;30;20134;-87
2022/01/17 10:20:59;;;;;;;37.97;6.57;;;9.60;99.90;;;;;;4787253;30;20094;-90
2022/01/17 10:26:31;;;;;;;44.55;6.35;;;9.80;99.90;;;;;;4786813;30;20065;-90
2022/01/17 10:29:30;;;;;;;46.72;6.47;;;10.00;99.90;;;;;;4787007;30;20055;-85
2022/01/17 10:34:53;;;;;;;32.90;6.18;;;9.70;99.90;;;;;;4787042;29;20059;-89
2022/01/17 10:37:22;;;;;;;47.08;7.03;;;9.70;99.90;;;;;;4786953;30;20047;-86
2022/01/17 10:39:55;;;;;;;37.15;6.57;;;9.90;99.90;;;;;;4772205;30;20074;-87
2022/01/17 10:42:27;;;;;;;38.78;6.32;;;9.70;99.90;;;;;;4772024;30;20565;-84
2022/01/17 10:45:03;;;;;;;41.20;6.32;;;9.80;99.90;;;;;;4776720;30;20055;-88
2022/01/17 10:48:31;;;;;;;46.78;7.85;;;9.80;99.90;;;;;;4769678;30;20054;-90
2022/01/17 10:51:33;;;;;;;31.65;6.85;;;9.90;99.90;;;;;;4767957;30;20059;-92
2022/01/17 10:54:12;;;;;;;47.53;6.38;;;9.80;99.90;;;;;;4753772;30;20784;-90
2022/01/17 10:57:05;;;;;;;57.50;6.32;;;10.00;99.90;;;;;;4769233;30;20050;-88
2022/01/17 10:59:37;;;;;;;52.90;7.57;;;8.70;99.90;;;;;;4766558;30;20056;-85
2022/01/17 11:02:04;;;;;;;60.67;9.15;;;11.20;99.90;;;;;;4771159;30;20505;-87
2022/01/17 11:04:36;;;;;;;49.97;6.65;;;9.90;99.90;;;;;;4778250;30;20043;-87
2022/01/17 11:07:05;;;;;;;48.53;7.32;;;10.10;99.90;;;;;;4787104;30;20059;-87
2022/01/17 11:09:43;;;;;;;55.75;7.78;;;9.80;99.90;;;;;;4786847;30;20050;-85
2022/01/17 11:12:12;;;;;;;63.03;8.85;;;9.70;99.90;;;;;;4786551;30;20116;-87
2022/01/17 11:14:40;;;;;;;50.83;7.85;;;9.60;99.90;;;;;;4785871;30;20051;-85
2022/01/17 11:17:27;;;;;;;44.35;7.40;;;9.50;99.90;;;;;;4786901;30;20143;-86
2022/01/17 11:20:04;;;;;;;58.15;9.15;;;9.70;99.90;;;;;;4786701;30;20052;-86
2022/01/17 11:22:30;;;;;;;49.88;7.45;;;10.90;99.90;;;;;;4786772;30;20058;-86
2022/01/17 11:24:57;;;;;;;55.92;6.43;;;9.90;99.90;;;;;;4787156;30;20517;-86
2022/01/17 11:27:23;;;;;;;58.55;8.27;;;9.90;99.90;;;;;;4786841;30;20055;-86
2022/01/17 11:29:50;;;;;;;59.53;9.48;;;11.40;99.90;;;;;;4786666;30;20051;-86
2022/01/17 11:32:16;;;;;;;45.80;7.40;;;10.30;99.90;;;;;;4786627;30;20509;-86
2022/01/17 11:34:42;;;;;;;57.33;8.13;;;10.00;99.90;;;;;;4786497;30;20051;-87
2022/01/17 11:37:09;;;;;;;66.03;9.25;;;10.10;99.90;;;;;;4801417;29;20051;-87
2022/01/17 11:39:45;;;;;;;56.65;8.57;;;9.80;99.90;;;;;;4786689;30;20101;-87
2022/01/17 11:42:36;;;;;;;48.25;7.60;;;9.90;99.90;;;;;;4787182;29;20108;-86
2022/01/17 11:45:27;;;;;;;50.25;7.75;;;9.90;99.90;;;;;;4789777;30;20055;-86
2022/01/17 11:47:56;;;;;;;47.20;8.45;;;8.30;99.90;;;;;;4791152;30;20386;-86
2022/01/17 11:50:28;;;;;;;53.47;7.68;;;9.90;99.90;;;;;;4789374;30;20413;-86
2022/01/17 11:52:55;;;;;;;62.75;9.38;;;10.80;99.90;;;;;;4789297;30;20112;-86
2022/01/17 11:55:43;;;;;;;63.78;9.13;;;9.90;99.90;;;;;;4774670;30;20055;-87
2022/01/17 11:58:27;;;;;;;69.32;8.32;;;9.80;99.90;;;;;;4774070;30;20067;-87
2022/01/17 12:00:59;;;;;;;65.78;8.90;;;9.80;99.90;;;;;;4775002;30;20508;-88
2022/01/17 12:03:29;;;;;;;78.93;9.85;;;10.00;99.90;;;;;;4774312;30;20051;-90
2022/01/17 12:05:56;;;;;;;63.10;8.32;;;10.70;99.90;;;;;;4789351;30;20058;-85
2022/01/17 12:08:24;;;;;;;57.17;7.53;;;10.20;99.90;;;;;;4790502;30;20066;-87
2022/01/17 12:10:52;;;;;;;70.97;9.30;;;10.50;99.90;;;;;;4788232;30;20442;-90
2022/01/17 12:13:20;;;;;;;66.75;9.80;;;9.80;99.90;;;;;;4756913;30;20112;-86
2022/01/17 12:15:58;;;;;;;49.85;7.90;;;10.00;99.90;;;;;;4756607;30;20119;-86
2022/01/17 12:18:29;;;;;;;46.67;8.43;;;10.30;99.90;;;;;;4771968;30;20059;-86
2022/01/17 12:21:19;;;;;;;71.55;9.32;;;9.90;99.90;;;;;;4771812;30;20139;-92
2022/01/17 12:23:45;;;;;;;50.40;8.02;;;9.80;99.90;;;;;;4771542;30;20052;-87
2022/01/17 12:26:26;;;;;;;72.10;8.88;;;10.00;99.90;;;;;;4771180;30;20052;-87
2022/01/17 12:28:56;;;;;;;84.13;10.38;;;10.40;99.90;;;;;;4771283;30;20059;-87
2022/01/17 12:31:40;;;;;;;57.58;8.90;;;11.80;99.90;;;;;;4771698;30;20055;-90
2022/01/17 12:34:22;;;;;;;63.50;9.18;;;9.90;99.90;;;;;;4770984;30;20581;-89
2022/01/17 12:36:48;;;;;;;70.88;9.43;;;11.90;99.90;;;;;;4774288;30;20047;-88
2022/01/17 12:39:19;;;;;;;71.35;9.18;;;10.00;99.90;;;;;;4771130;30;20163;-84
2022/01/17 12:41:48;;;;;;;73.68;9.38;;;9.80;99.90;;;;;;4770986;30;20056;-86
2022/01/17 12:44:27;;;;;;;94.70;12.27;;;10.40;99.90;;;;;;4771141;30;20060;-85
2022/01/17 12:46:57;;;;;;;46.80;8.82;;;9.80;99.90;;;;;;4771047;30;20043;-85
2022/01/17 12:49:24;;;;;;;58.88;8.80;;;9.70;99.90;;;;;;4770708;30;20043;-88
2022/01/17 12:51:52;;;;;;;54.58;8.25;;;10.00;99.90;;;;;;4770854;30;20048;-86
2022/01/17 12:54:20;;;;;;;62.05;8.20;;;10.30;99.90;;;;;;4770879;30;20055;-88
2022/01/17 12:56:49;;;;;;;74.80;9.35;;;9.90;99.90;;;;;;4770902;30;20048;-86
2022/01/17 12:59:17;;;;;;;56.22;8.63;;;9.90;99.90;;;;;;4770083;30;20414;-88
2022/01/17 13:01:48;;;;;;;70.22;10.10;;;10.10;99.90;;;;;;4770365;30;20056;-89
2022/01/17 13:04:16;;;;;;;72.70;9.48;;;10.10;99.90;;;;;;4773893;30;20081;-87
2022/01/17 13:06:43;;;;;;;64.65;8.90;;;11.90;99.90;;;;;;4771741;30;20051;-86
2022/01/17 13:09:15;;;;;;;79.57;10.40;;;11.50;99.90;;;;;;4786204;30;20047;-86
2022/01/17 13:11:43;;;;;;;50.25;7.50;;;9.70;99.90;;;;;;4774831;30;20051;-87
2022/01/17 13:14:13;;;;;;;71.57;10.40;;;11.00;99.90;;;;;;4787481;30;20085;-76
2022/01/17 13:16:40;;;;;;;85.45;12.13;;;9.80;99.90;;;;;;4784753;30;20047;-87
2022/01/17 13:19:09;;;;;;;57.33;9.40;;;10.00;99.90;;;;;;4787784;30;20047;-84
2022/01/17 13:21:38;;;;;;;54.25;8.23;;;10.00;99.90;;;;;;4780516;30;20101;-83
2022/01/17 13:24:16;;;;;;;58.30;7.93;;;9.70;99.90;;;;;;4782754;30;20054;-87
2022/01/17 13:26:52;;;;;;;61.88;7.65;;;10.30;99.90;;;;;;4787092;30;20050;-86
2022/01/17 13:29:18;;;;;;;65.90;8.63;;;9.70;99.90;;;;;;4789341;29;20051;-86
2022/01/17 13:31:44;;;;;;;74.25;9.32;;;10.70;99.90;;;;;;4788540;30;20048;-89
2022/01/17 13:34:19;;;;;;;62.25;10.27;;;9.70;99.90;;;;;;4788451;30;20141;-85